Terminal Aerodrome Forecast
Issued by NWS Cleveland, OH

Home | Current Version | Previous Version | Graphics & Text | Print | Product List | Glossary Off
Versions: 1 2 3 4 5 6 7 8 9 10 11 12 13 14 15 16 17 18 19

781
FTUS41 KCLE 161625 AAA
TAFERI
TAF AMD
KERI 161625Z 1616/1712 35012KT P6SM SCT025 BKN035
      TEMPO 1616/1619 BKN025
     FM162000 32010KT P6SM SCT045
     FM170400 19004KT P6SM SCT060=

USA.gov is the U.S. government's official web portal to all federal, state and local government web resources and services.